createdAt,value
2022-11-16T00:01:07.601Z,93409.69
2022-11-16T00:03:34.823Z,93400.50
2022-11-16T00:06:03.800Z,93412.97
2022-11-16T00:08:33.340Z,93410.56
2022-11-16T00:11:14.807Z,93395.69
2022-11-16T00:13:43.138Z,93405.34
2022-11-16T00:16:17.623Z,93401.59
2022-11-16T00:18:44.946Z,93409.13
2022-11-16T00:21:11.731Z,93412.59
2022-11-16T00:23:39.058Z,93391.81
2022-11-16T00:26:07.015Z,93400.97
2022-11-16T00:28:34.499Z,93393.16
2022-11-16T00:31:03.956Z,93380.31
2022-11-16T00:33:31.128Z,93388.34
2022-11-16T00:35:57.978Z,93389.97
2022-11-16T00:38:24.798Z,93388.22
2022-11-16T00:40:51.555Z,93387.53
2022-11-16T00:43:18.653Z,93384.72
2022-11-16T00:45:45.391Z,93390.38
2022-11-16T00:48:12.660Z,93379.38
2022-11-16T00:50:39.726Z,93380.03
2022-11-16T00:53:07.552Z,93373.34
2022-11-16T00:55:34.426Z,93377.88
2022-11-16T00:58:02.411Z,93373.34
2022-11-16T01:00:29.289Z,93373.47
2022-11-16T01:02:56.245Z,93367.97
2022-11-16T01:05:24.533Z,93361.94
2022-11-16T01:07:51.978Z,93353.75
2022-11-16T01:10:21.407Z,93347.88
2022-11-16T01:12:49.680Z,93336.34
2022-11-16T01:15:17.750Z,93338.88
2022-11-16T01:17:44.876Z,93343.34
2022-11-16T01:20:17.549Z,93331.00
2022-11-16T01:22:44.402Z,93331.41
2022-11-16T01:25:12.311Z,93334.34
2022-11-16T01:27:39.894Z,93334.75
2022-11-16T01:30:13.046Z,93334.47
2022-11-16T01:32:44.690Z,93339.97
2022-11-16T01:35:16.455Z,93341.31
2022-11-16T01:37:43.368Z,93345.72
2022-11-16T01:40:11.517Z,93340.09
2022-11-16T01:42:40.783Z,93337.72
2022-11-16T01:45:20.144Z,93335.94
2022-11-16T01:47:47.998Z,93330.44
2022-11-16T01:50:19.001Z,93329.66
2022-11-16T01:52:54.187Z,93326.03
2022-11-16T01:55:23.064Z,93313.31
2022-11-16T01:58:24.002Z,93321.63
2022-11-16T02:00:57.386Z,93315.06
2022-11-16T02:03:32.082Z,93329.13
2022-11-16T02:06:07.340Z,93306.06
2022-11-16T02:09:23.367Z,93316.13
2022-11-16T02:12:26.541Z,93319.91
2022-11-16T02:15:20.518Z,93312.66
2022-11-16T02:18:00.443Z,93313.44
2022-11-16T02:20:50.911Z,93309.97
2022-11-16T02:23:44.500Z,93299.78
2022-11-16T02:26:43.572Z,93300.59
2022-11-16T02:29:32.638Z,93292.69
2022-11-16T02:32:02.425Z,93293.22
2022-11-16T02:34:37.742Z,93295.22
2022-11-16T02:37:05.209Z,93286.13
2022-11-16T02:39:33.186Z,93285.72
2022-11-16T02:42:01.941Z,93289.06
2022-11-16T02:44:39.284Z,93286.00
2022-11-16T02:47:11.398Z,93285.72
2022-11-16T02:49:43.932Z,93287.84
2022-11-16T02:52:11.216Z,93278.88
2022-11-16T02:54:38.371Z,93273.94
2022-11-16T02:57:05.059Z,93286.63
2022-11-16T02:59:43.470Z,93281.13
2022-11-16T03:02:44.371Z,93268.41
2022-11-16T03:05:33.933Z,93283.66
2022-11-16T03:08:15.773Z,93276.31
2022-11-16T03:11:04.756Z,93277.22
2022-11-16T03:13:34.058Z,93272.66
2022-11-16T03:16:05.796Z,93260.63
2022-11-16T03:18:33.030Z,93262.78
2022-11-16T03:21:16.620Z,93254.44
2022-11-16T03:23:45.363Z,93256.88
2022-11-16T03:26:14.090Z,93252.03
2022-11-16T03:28:51.668Z,93254.03
2022-11-16T03:31:29.241Z,93250.16
2022-11-16T03:33:58.534Z,93260.44
2022-11-16T03:36:30.158Z,93253.38
2022-11-16T03:39:03.088Z,93262.03
2022-11-16T03:41:33.702Z,93259.75
2022-11-16T03:44:00.310Z,93254.25
2022-11-16T03:46:27.146Z,93264.53
2022-11-16T03:48:58.874Z,93267.38
2022-11-16T03:51:29.174Z,93264.44
2022-11-16T03:53:56.016Z,93262.13
2022-11-16T03:56:23.304Z,93262.94
2022-11-16T03:58:50.134Z,93258.25
2022-11-16T04:01:17.817Z,93261.34
2022-11-16T04:03:45.867Z,93247.06
2022-11-16T04:06:31.328Z,93252.69
2022-11-16T04:09:17.073Z,93243.72
2022-11-16T04:12:02.527Z,93237.44
2022-11-16T04:14:47.942Z,93236.91
2022-11-16T04:17:37.749Z,93223.25
2022-11-16T04:20:24.381Z,93227.28
2022-11-16T04:23:13.989Z,93231.16
2022-11-16T04:25:41.834Z,93226.19
2022-11-16T04:28:16.786Z,93219.66
2022-11-16T04:31:23.309Z,93223.13
2022-11-16T04:34:20.110Z,93215.13
2022-11-16T04:37:09.619Z,93219.00
2022-11-16T04:39:36.457Z,93212.59
2022-11-16T04:42:14.426Z,93222.75
2022-11-16T04:45:01.081Z,93221.91
2022-11-16T04:47:33.577Z,93218.59
2022-11-16T04:50:00.365Z,93227.59
2022-11-16T04:52:27.852Z,93220.50
2022-11-16T04:54:55.893Z,93215.44
2022-11-16T04:57:23.509Z,93215.81
2022-11-16T04:59:50.669Z,93213.94
2022-11-16T05:02:17.574Z,93218.50
2022-11-16T05:04:49.668Z,93218.50
2022-11-16T05:07:17.588Z,93217.69
2022-11-16T05:09:47.762Z,93224.00
2022-11-16T05:12:25.381Z,93207.13
2022-11-16T05:14:57.763Z,93211.78
2022-11-16T05:17:27.232Z,93209.41
2022-11-16T05:20:14.099Z,93210.19
2022-11-16T05:22:55.151Z,93212.84
2022-11-16T05:25:23.890Z,93206.16
2022-11-16T05:27:50.673Z,93206.69
2022-11-16T05:30:17.646Z,93201.38
2022-11-16T05:32:44.650Z,93199.78
2022-11-16T05:35:13.035Z,93201.50
2022-11-16T05:37:40.043Z,93202.31
2022-11-16T05:40:07.710Z,93201.91
2022-11-16T05:42:41.932Z,93204.56
2022-11-16T05:45:09.288Z,93199.75
2022-11-16T05:47:36.192Z,93202.31
2022-11-16T05:50:03.405Z,93212.75
2022-11-16T05:52:35.469Z,93218.34
2022-11-16T05:55:06.806Z,93203.72
2022-11-16T05:57:39.970Z,93204.34
2022-11-16T06:00:07.885Z,93220.03
2022-11-16T06:02:41.819Z,93204.09
2022-11-16T06:05:15.267Z,93214.25
2022-11-16T06:07:42.298Z,93219.75
2022-11-16T06:10:09.453Z,93221.34
2022-11-16T06:12:36.411Z,93213.31
2022-11-16T06:15:03.940Z,93222.28
2022-11-16T06:17:33.868Z,93207.97
2022-11-16T06:20:01.204Z,93226.09
2022-11-16T06:22:28.003Z,93219.38
2022-11-16T06:24:54.723Z,93224.69
2022-11-16T06:27:21.665Z,93221.09
2022-11-16T06:29:48.489Z,93211.16
2022-11-16T06:32:15.279Z,93223.19
2022-11-16T06:34:42.396Z,93213.41
2022-11-16T06:37:09.531Z,93218.94
2022-11-16T06:39:36.291Z,93217.56
2022-11-16T06:42:03.071Z,93212.88
2022-11-16T06:44:30.298Z,93214.84
2022-11-16T06:47:01.005Z,93206.91
2022-11-16T06:49:28.086Z,93209.69
2022-11-16T06:51:58.809Z,93205.75
2022-11-16T06:54:35.090Z,93215.09
2022-11-16T06:57:02.638Z,93190.16
2022-11-16T06:59:29.517Z,93216.66
2022-11-16T07:01:56.413Z,93206.19
2022-11-16T07:04:23.433Z,93215.66
2022-11-16T07:06:54.771Z,93213.72
2022-11-16T07:09:21.657Z,93207.69
2022-11-16T07:11:48.391Z,93209.63
2022-11-16T07:14:16.041Z,93204.09
2022-11-16T07:16:43.585Z,93212.66
2022-11-16T07:19:11.185Z,93199.63
2022-11-16T07:21:38.863Z,93205.59
2022-11-16T07:24:10.867Z,93196.72
2022-11-16T07:26:37.683Z,93215.75
2022-11-16T07:29:13.885Z,93204.94
2022-11-16T07:31:45.500Z,93198.25
2022-11-16T07:34:32.149Z,93201.81
2022-11-16T07:37:08.073Z,93194.97
2022-11-16T07:39:34.858Z,93186.69
2022-11-16T07:42:03.541Z,93198.38
2022-11-16T07:44:50.486Z,93190.84
2022-11-16T07:47:17.235Z,93200.00
2022-11-16T07:49:44.030Z,93197.50
2022-11-16T07:52:16.715Z,93184.06
2022-11-16T07:54:57.658Z,93192.16
2022-11-16T07:57:26.691Z,93189.19
2022-11-16T07:59:55.528Z,93180.34
2022-11-16T08:02:22.570Z,93186.16
2022-11-16T08:04:51.130Z,93179.94
2022-11-16T08:07:22.190Z,93185.75
2022-11-16T08:09:53.294Z,93174.94
2022-11-16T08:12:21.285Z,93179.56
2022-11-16T08:14:48.079Z,93170.63
2022-11-16T08:17:15.164Z,93169.06
2022-11-16T08:19:42.758Z,93171.31
2022-11-16T08:22:13.149Z,93167.84
2022-11-16T08:24:41.468Z,93154.75
2022-11-16T08:27:09.122Z,93165.75
2022-11-16T08:29:35.883Z,93152.81
2022-11-16T08:32:04.889Z,93156.28
2022-11-16T08:34:34.154Z,93150.69
2022-11-16T08:37:00.961Z,93161.28
2022-11-16T08:39:43.371Z,93155.56
2022-11-16T08:42:10.144Z,93149.69
2022-11-16T08:44:38.290Z,93151.91
2022-11-16T08:47:10.287Z,93143.91
2022-11-16T08:49:46.572Z,93139.00
2022-11-16T08:52:16.382Z,93140.41
2022-11-16T08:54:43.625Z,93147.66
2022-11-16T08:57:11.180Z,93145.41
2022-11-16T08:59:39.617Z,93141.91
2022-11-16T09:02:10.789Z,93151.00
2022-11-16T09:04:37.636Z,93146.22
2022-11-16T09:07:04.713Z,93148.59
2022-11-16T09:09:31.483Z,93148.94
2022-11-16T09:11:58.222Z,93144.44
2022-11-16T09:14:25.079Z,93144.28
2022-11-16T09:16:52.323Z,93136.44
2022-11-16T09:19:20.469Z,93133.84
2022-11-16T09:21:47.203Z,93124.72
2022-11-16T09:24:13.938Z,93128.25
2022-11-16T09:26:40.665Z,93113.38
2022-11-16T09:29:07.438Z,93106.81
2022-11-16T09:31:34.914Z,93110.03
2022-11-16T09:34:02.899Z,93093.56
2022-11-16T09:36:30.103Z,93094.03
2022-11-16T09:42:00.459Z,93073.44
2022-11-16T09:44:37.843Z,93066.06
2022-11-16T09:47:09.127Z,93074.22
2022-11-16T09:49:42.510Z,93070.22
2022-11-16T09:52:17.157Z,93069.25
2022-11-16T09:54:45.423Z,93068.78
2022-11-16T09:57:16.156Z,93060.63
2022-11-16T09:59:52.037Z,93067.69
2022-11-16T10:02:26.717Z,93054.41
2022-11-16T10:05:21.963Z,93052.16
2022-11-16T10:07:52.367Z,93043.84
2022-11-16T10:10:28.646Z,93040.19
2022-11-16T10:13:04.376Z,93029.78
2022-11-16T10:15:50.602Z,93038.41
2022-11-16T10:18:43.695Z,93021.75
2022-11-16T10:22:08.624Z,93017.72
2022-11-16T10:24:57.782Z,93014.34
2022-11-16T10:27:37.910Z,93009.56
2022-11-16T10:30:18.385Z,93001.47
2022-11-16T10:33:13.091Z,93009.59
2022-11-16T10:35:47.057Z,92991.84
2022-11-16T10:38:17.047Z,92991.59
2022-11-16T10:40:46.882Z,92992.28
2022-11-16T10:43:14.641Z,92991.44
2022-11-16T10:46:01.096Z,92993.56
2022-11-16T10:48:42.623Z,92986.84
2022-11-16T10:51:10.449Z,92980.66
2022-11-16T10:53:42.495Z,92987.78
2022-11-16T10:56:21.403Z,92977.38
2022-11-16T10:59:05.735Z,92972.75
2022-11-16T11:01:41.604Z,92970.53
2022-11-16T11:04:28.932Z,92952.00
2022-11-16T11:07:02.802Z,92961.56
2022-11-16T11:09:33.121Z,92954.19
2022-11-16T11:12:37.402Z,92949.44
2022-11-16T11:15:25.927Z,92940.56
2022-11-16T11:18:16.569Z,92940.53
2022-11-16T11:20:45.391Z,92928.72
2022-11-16T11:23:19.561Z,92927.06
2022-11-16T11:25:54.668Z,92923.41
2022-11-16T11:28:21.381Z,92909.56
2022-11-16T11:31:00.506Z,92904.97
2022-11-16T11:33:30.399Z,92914.00
2022-11-16T11:36:06.324Z,92906.22
2022-11-16T11:38:34.403Z,92912.28
2022-11-16T11:41:01.969Z,92906.72
2022-11-16T11:43:29.754Z,92910.34
2022-11-16T11:46:20.962Z,92896.59
2022-11-16T11:48:52.084Z,92895.78
2022-11-16T11:51:27.766Z,92891.84
2022-11-16T11:53:56.687Z,92879.16
2022-11-16T11:56:24.734Z,92877.44
2022-11-16T11:58:51.991Z,92870.31
2022-11-16T12:01:37.792Z,92869.44
2022-11-16T12:04:42.973Z,92879.63
2022-11-16T12:07:34.078Z,92865.72
2022-11-16T12:10:21.725Z,92864.66
2022-11-16T12:13:38.592Z,92863.44
2022-11-16T12:16:08.260Z,92860.06
2022-11-16T12:18:52.275Z,92854.81
2022-11-16T12:21:31.976Z,92858.22
2022-11-16T12:24:19.605Z,92849.91
2022-11-16T12:27:13.954Z,92846.09
2022-11-16T12:29:52.191Z,92844.75
2022-11-16T12:32:29.166Z,92838.03
2022-11-16T12:35:24.630Z,92839.13
2022-11-16T12:38:03.972Z,92831.25
2022-11-16T12:40:33.590Z,92828.19
2022-11-16T12:43:14.551Z,92826.66
2022-11-16T12:45:44.141Z,92823.47
2022-11-16T12:48:27.818Z,92824.88
2022-11-16T12:50:58.999Z,92824.78
2022-11-16T12:54:03.306Z,92811.97
2022-11-16T12:56:49.255Z,92805.75
2022-11-16T12:59:52.482Z,92811.97
2022-11-16T13:02:31.357Z,92824.28
2022-11-16T13:05:05.695Z,92815.81
2022-11-16T13:07:39.803Z,92812.72
2022-11-16T13:10:13.934Z,92812.16
2022-11-16T13:12:42.611Z,92812.13
2022-11-16T13:15:19.259Z,92810.34
2022-11-16T13:18:00.523Z,92798.63
2022-11-16T13:20:49.526Z,92797.28
2022-11-16T13:23:31.976Z,92802.44
2022-11-16T13:26:10.739Z,92798.47
2022-11-16T13:28:57.518Z,92799.06
2022-11-16T13:32:02.886Z,92790.16
2022-11-16T13:34:33.083Z,92796.94
2022-11-16T13:36:59.851Z,92797.59
2022-11-16T13:39:57.559Z,92801.03
2022-11-16T13:42:24.994Z,92800.28
2022-11-16T13:44:52.227Z,92800.09
2022-11-16T13:47:22.051Z,92800.06
2022-11-16T13:49:57.484Z,92789.97
2022-11-16T13:53:23.531Z,92803.47
2022-11-16T13:55:34.375Z,92799.47
2022-11-16T13:58:03.284Z,92792.19
2022-11-16T14:00:35.395Z,92800.69
2022-11-16T14:03:17.351Z,92791.38
2022-11-16T14:05:45.413Z,92809.06
2022-11-16T14:08:24.359Z,92789.75
2022-11-16T14:10:51.049Z,92796.47
2022-11-16T14:13:30.296Z,92784.59
2022-11-16T14:16:15.148Z,92775.97
2022-11-16T14:18:43.458Z,92773.38
2022-11-16T14:21:19.229Z,92782.13
2022-11-16T14:23:48.819Z,92779.53
2022-11-16T14:26:46.418Z,92771.75
2022-11-16T14:29:37.681Z,92785.00
2022-11-16T14:32:17.927Z,92779.63
2022-11-16T14:34:47.384Z,92781.25
2022-11-16T14:37:35.309Z,92771.09
2022-11-16T14:40:08.623Z,92766.75
2022-11-16T14:43:09.408Z,92787.94
2022-11-16T14:45:32.251Z,92776.47
2022-11-16T14:48:20.159Z,92784.78
2022-11-16T14:51:03.611Z,92780.97
2022-11-16T14:53:31.014Z,92768.06
2022-11-16T14:56:13.049Z,92775.00
2022-11-16T14:58:40.057Z,92778.75
2022-11-16T15:01:11.893Z,92780.56
2022-11-16T15:03:52.511Z,92766.22
2022-11-16T15:06:19.548Z,92765.44
2022-11-16T15:08:54.493Z,92770.16
2022-11-16T15:11:50.581Z,92771.28
2022-11-16T15:14:20.591Z,92761.97
2022-11-16T15:16:52.280Z,92759.03
2022-11-16T15:19:19.530Z,92767.09
2022-11-16T15:21:53.365Z,92760.88
2022-11-16T15:24:30.987Z,92759.50
2022-11-16T15:27:22.435Z,92768.41
2022-11-16T15:29:49.399Z,92762.63
2022-11-16T15:32:16.949Z,92756.28
2022-11-16T15:34:48.092Z,92754.06
2022-11-16T15:37:26.834Z,92751.25
2022-11-16T15:39:54.272Z,92753.44
2022-11-16T15:42:21.498Z,92750.69
2022-11-16T15:44:48.319Z,92760.34
2022-11-16T15:47:16.029Z,92752.44
2022-11-16T15:49:44.110Z,92750.09
2022-11-16T15:52:11.309Z,92764.34
2022-11-16T15:54:57.023Z,92760.81
2022-11-16T15:57:24.232Z,92759.94
2022-11-16T15:59:56.794Z,92770.88
2022-11-16T16:02:28.743Z,92768.78
2022-11-16T16:04:55.554Z,92767.81
2022-11-16T16:07:39.498Z,92769.94
2022-11-16T16:10:13.823Z,92766.81
2022-11-16T16:12:51.399Z,92772.75
2022-11-16T16:15:21.510Z,92766.06
2022-11-16T16:17:48.262Z,92764.63
2022-11-16T16:20:29.227Z,92765.25
2022-11-16T16:23:28.508Z,92774.50
2022-11-16T16:25:55.213Z,92766.53
2022-11-16T16:28:21.971Z,92761.53
2022-11-16T16:30:51.418Z,92772.22
2022-11-16T16:33:22.889Z,92772.41
2022-11-16T16:35:52.503Z,92768.44
2022-11-16T16:38:19.235Z,92765.81
2022-11-16T16:40:46.011Z,92762.31
2022-11-16T16:43:12.771Z,92759.91
2022-11-16T16:45:43.116Z,92768.06
2022-11-16T16:48:11.874Z,92764.09
2022-11-16T16:50:38.921Z,92759.13
2022-11-16T16:53:05.929Z,92758.94
2022-11-16T16:55:37.492Z,92754.53
2022-11-16T16:58:05.151Z,92759.31
2022-11-16T17:00:32.075Z,92761.91
2022-11-16T17:02:58.810Z,92760.22
2022-11-16T17:05:26.670Z,92763.41
2022-11-16T17:07:56.603Z,92753.06
2022-11-16T17:10:23.395Z,92749.34
2022-11-16T17:12:53.528Z,92755.53
2022-11-16T17:15:20.517Z,92758.34
2022-11-16T17:17:47.455Z,92756.06
2022-11-16T17:20:14.759Z,92756.50
2022-11-16T17:22:41.959Z,92750.44
2022-11-16T17:25:09.722Z,92745.06
2022-11-16T17:27:36.521Z,92738.97
2022-11-16T17:30:04.405Z,92742.94
2022-11-16T17:32:31.135Z,92745.31
2022-11-16T17:34:57.902Z,92750.28
2022-11-16T17:37:24.642Z,92744.00
2022-11-16T17:39:51.391Z,92741.09
2022-11-16T17:42:18.108Z,92743.03
2022-11-16T17:44:44.843Z,92743.28
2022-11-16T17:47:11.714Z,92740.41
2022-11-16T17:49:38.552Z,92744.50
2022-11-16T17:52:06.234Z,92735.75
2022-11-16T17:54:33.102Z,92731.03
2022-11-16T17:56:59.863Z,92725.38
2022-11-16T17:59:29.434Z,92719.94
2022-11-16T18:01:58.065Z,92724.28
2022-11-16T18:04:25.331Z,92727.44
2022-11-16T18:06:52.133Z,92724.72
2022-11-16T18:09:19.041Z,92715.91
2022-11-16T18:11:46.055Z,92717.69
2022-11-16T18:14:12.883Z,92731.31
2022-11-16T18:16:42.462Z,92714.41
2022-11-16T18:19:11.920Z,92720.94
2022-11-16T18:21:40.233Z,92710.00
2022-11-16T18:24:07.463Z,92699.13
2022-11-16T18:26:34.305Z,92707.97
2022-11-16T18:29:01.084Z,92710.44
2022-11-16T18:31:28.100Z,92700.56
2022-11-16T18:33:54.820Z,92714.00
2022-11-16T18:36:22.151Z,92697.19
2022-11-16T18:38:49.116Z,92704.97
2022-11-16T18:41:19.797Z,92701.78
2022-11-16T18:43:50.304Z,92691.88
2022-11-16T18:46:18.860Z,92705.50
2022-11-16T18:48:46.743Z,92701.25
2022-11-16T18:51:14.459Z,92698.16
2022-11-16T18:53:41.184Z,92703.19
2022-11-16T18:56:27.294Z,92705.41
2022-11-16T18:58:54.025Z,92715.84
2022-11-16T19:01:23.474Z,92718.41
2022-11-16T19:03:51.567Z,92721.34
2022-11-16T19:06:18.925Z,92712.59
2022-11-16T19:08:51.815Z,92721.19
2022-11-16T19:11:20.601Z,92710.41
2022-11-16T19:13:52.724Z,92719.25
2022-11-16T19:16:19.479Z,92703.78
2022-11-16T19:18:46.242Z,92702.78
2022-11-16T19:21:14.933Z,92706.69
2022-11-16T19:23:44.812Z,92696.88
2022-11-16T19:26:13.387Z,92709.19
2022-11-16T19:28:40.786Z,92708.66
2022-11-16T19:31:19.413Z,92701.91
2022-11-16T19:33:46.574Z,92705.88
2022-11-16T19:36:18.506Z,92699.09
2022-11-16T19:38:48.149Z,92696.97
2022-11-16T19:41:16.397Z,92700.16
2022-11-16T19:43:43.239Z,92706.41
2022-11-16T19:46:12.229Z,92709.00
2022-11-16T19:48:39.247Z,92727.22
2022-11-16T19:51:14.760Z,92722.28
2022-11-16T19:53:41.599Z,92705.97
2022-11-16T19:56:10.623Z,92699.09
2022-11-16T19:58:38.610Z,92708.63
2022-11-16T20:01:12.132Z,92703.06
2022-11-16T20:03:40.369Z,92692.38
2022-11-16T20:06:15.048Z,92700.88
2022-11-16T20:08:43.373Z,92709.88
2022-11-16T20:11:21.796Z,92691.50
2022-11-16T20:13:49.494Z,92691.41
2022-11-16T20:16:18.044Z,92694.94
2022-11-16T20:18:45.031Z,92696.81
2022-11-16T20:21:23.585Z,92685.91
2022-11-16T20:23:53.722Z,92692.38
2022-11-16T20:26:21.183Z,92673.09
2022-11-16T20:28:51.096Z,92682.22
2022-11-16T20:31:19.883Z,92667.91
2022-11-16T20:33:54.640Z,92659.84
2022-11-16T20:36:25.282Z,92641.00
2022-11-16T20:38:52.597Z,92644.72
2022-11-16T20:41:25.182Z,92630.75
2022-11-16T20:43:53.556Z,92644.59
2022-11-16T20:46:21.936Z,92645.88
2022-11-16T20:48:49.142Z,92638.44
2022-11-16T20:51:18.342Z,92649.72
2022-11-16T20:53:46.315Z,92647.16
2022-11-16T20:56:14.217Z,92643.88
2022-11-16T20:58:41.000Z,92631.41
2022-11-16T21:01:11.175Z,92642.09
2022-11-16T21:03:38.469Z,92646.59
2022-11-16T21:06:08.732Z,92639.81
2022-11-16T21:08:36.612Z,92639.66
2022-11-16T21:11:10.012Z,92639.72
2022-11-16T21:13:55.434Z,92637.16
2022-11-16T21:16:22.334Z,92640.50
2022-11-16T21:18:49.032Z,92644.69
2022-11-16T21:21:15.755Z,92635.41
2022-11-16T21:23:45.007Z,92635.34
2022-11-16T21:26:14.091Z,92636.75
2022-11-16T21:28:44.637Z,92642.56
2022-11-16T21:31:25.420Z,92626.75
2022-11-16T21:33:52.954Z,92617.94
2022-11-16T21:36:21.700Z,92621.53
2022-11-16T21:38:48.894Z,92615.38
2022-11-16T21:41:17.272Z,92620.31
2022-11-16T21:43:44.408Z,92614.31
2022-11-16T21:46:12.197Z,92618.69
2022-11-16T21:48:39.560Z,92604.31
2022-11-16T21:51:08.626Z,92597.31
2022-11-16T21:53:36.173Z,92618.06
2022-11-16T21:56:04.054Z,92591.25
2022-11-16T21:58:30.805Z,92610.81
2022-11-16T22:00:59.490Z,92607.47
2022-11-16T22:03:28.380Z,92607.41
2022-11-16T22:06:15.808Z,92598.38
2022-11-16T22:08:42.980Z,92605.28
2022-11-16T22:11:10.337Z,92591.28
2022-11-16T22:13:38.328Z,92589.94
2022-11-16T22:16:13.127Z,92600.75
2022-11-16T22:18:39.838Z,92593.25
2022-11-16T22:21:07.006Z,92593.50
2022-11-16T22:23:33.990Z,92591.13
2022-11-16T22:26:08.786Z,92579.53
2022-11-16T22:28:36.549Z,92583.56
2022-11-16T22:31:04.334Z,92577.28
2022-11-16T22:33:32.177Z,92575.88
2022-11-16T22:35:59.592Z,92556.78
2022-11-16T22:38:26.979Z,92561.53
2022-11-16T22:40:55.780Z,92569.94
2022-11-16T22:43:27.694Z,92556.53
2022-11-16T22:45:58.990Z,92549.41
2022-11-16T22:48:31.173Z,92539.66
2022-11-16T22:51:02.599Z,92552.56
2022-11-16T22:53:29.350Z,92542.25
2022-11-16T22:55:56.052Z,92547.56
2022-11-16T22:58:22.787Z,92542.72
2022-11-16T23:00:49.617Z,92534.84
2022-11-16T23:03:16.468Z,92538.53
2022-11-16T23:05:43.245Z,92551.97
2022-11-16T23:08:09.970Z,92532.50
2022-11-16T23:10:56.677Z,92535.13
2022-11-16T23:13:41.832Z,92542.78
2022-11-16T23:16:08.719Z,92557.09
2022-11-16T23:18:35.585Z,92523.22
2022-11-16T23:21:40.700Z,92542.22
2022-11-16T23:24:30.367Z,92540.47
2022-11-16T23:27:16.364Z,92547.59
2022-11-16T23:29:43.297Z,92535.50
2022-11-16T23:32:10.236Z,92534.16
2022-11-16T23:34:36.983Z,92544.97
2022-11-16T23:37:07.761Z,92538.94
2022-11-16T23:39:34.572Z,92535.16
2022-11-16T23:42:19.884Z,92538.34
2022-11-16T23:44:46.863Z,92519.69
2022-11-16T23:47:13.693Z,92522.69
2022-11-16T23:49:40.382Z,92520.25
2022-11-16T23:52:07.487Z,92522.34
2022-11-16T23:54:34.159Z,92527.31
2022-11-16T23:57:00.920Z,92522.00
2022-11-16T23:59:27.699Z,92521.75
